DLH6DE EDDM-EDDL
Flight info
| Callsign | DLH6DE |
|---|---|
| Flight time | 1h 4m |
| Altitude | 32000 |
| Route | GIVMI6Q/08L GIVMI Y101 INBED DCT REKDI DCT LOHRE Z850 ADEMI T854 DOMUX DOMUX1A |
| Aircraft | A321/M-SDE3FGHIRWY/LB1 |
Departure
| Time | 2026-05-04 18:15 |
|---|---|
| Airport | Munich Airport (EDDM) |
Arrival
| Time | 2026-05-04 19:20 |
|---|---|
| Airport | Düsseldorf Airport (EDDL) |
| Time | Latitude | Longitude | Altitude | Speed | Heading |
|---|---|---|---|---|---|
| 2026-05-04 17:29 | 48.35465 | 11.80017 | 1475 ft | 0 kts | 263° |
| 2026-05-04 17:55 | 48.35465 | 11.80020 | 1475 ft | 2 kts | 263° |
| 2026-05-04 17:55 | 48.35467 | 11.80059 | 1485 ft | 4 kts | 272° |
| 2026-05-04 17:55 | 48.35464 | 11.80099 | 1480 ft | 4 kts | 286° |
| 2026-05-04 17:56 | 48.35453 | 11.80136 | 1475 ft | 4 kts | 307° |
| 2026-05-04 17:56 | 48.35435 | 11.80161 | 1473 ft | 4 kts | 344° |
| 2026-05-04 17:56 | 48.35427 | 11.80164 | 1472 ft | 0 kts | 354° |
| 2026-05-04 18:02 | 48.35436 | 11.80163 | 1475 ft | 4 kts | 354° |
| 2026-05-04 18:02 | 48.35481 | 11.80157 | 1485 ft | 9 kts | 355° |
| 2026-05-04 18:03 | 48.35540 | 11.80147 | 1485 ft | 9 kts | 353° |
| 2026-05-04 18:03 | 48.35611 | 11.80134 | 1481 ft | 11 kts | 352° |
| 2026-05-04 18:03 | 48.35682 | 11.80092 | 1483 ft | 11 kts | 340° |
| 2026-05-04 18:03 | 48.35763 | 11.80070 | 1482 ft | 12 kts | 352° |
| 2026-05-04 18:04 | 48.35826 | 11.80052 | 1481 ft | 9 kts | 333° |
| 2026-05-04 18:04 | 48.35849 | 11.79965 | 1481 ft | 10 kts | 268° |
| 2026-05-04 18:04 | 48.35832 | 11.79733 | 1478 ft | 12 kts | 263° |
| 2026-05-04 18:05 | 48.35825 | 11.79645 | 1485 ft | 7 kts | 263° |
| 2026-05-04 18:05 | 48.35824 | 11.79629 | 1485 ft | 0 kts | 263° |
| 2026-05-04 18:07 | 48.35823 | 11.79618 | 1485 ft | 4 kts | 263° |
| 2026-05-04 18:07 | 48.35825 | 11.79544 | 1485 ft | 11 kts | 290° |
| 2026-05-04 18:07 | 48.35893 | 11.79513 | 1482 ft | 11 kts | 356° |
| 2026-05-04 18:07 | 48.35972 | 11.79501 | 1479 ft | 12 kts | 353° |
| 2026-05-04 18:08 | 48.36044 | 11.79488 | 1483 ft | 0 kts | 353° |
| 2026-05-04 18:09 | 48.36061 | 11.79486 | 1472 ft | 8 kts | 353° |
| 2026-05-04 18:09 | 48.36218 | 11.79540 | 1482 ft | 14 kts | 77° |
| 2026-05-04 18:10 | 48.36234 | 11.79735 | 1485 ft | 21 kts | 83° |
| 2026-05-04 18:10 | 48.36251 | 11.79958 | 1481 ft | 22 kts | 83° |
| 2026-05-04 18:10 | 48.36268 | 11.80188 | 1480 ft | 22 kts | 83° |
| 2026-05-04 18:10 | 48.36286 | 11.80422 | 1485 ft | 23 kts | 83° |
| 2026-05-04 18:11 | 48.36305 | 11.80658 | 1485 ft | 23 kts | 83° |
| 2026-05-04 18:11 | 48.36323 | 11.80898 | 1475 ft | 23 kts | 83° |
| 2026-05-04 18:11 | 48.36342 | 11.81139 | 1481 ft | 23 kts | 83° |
| 2026-05-04 18:11 | 48.36361 | 11.81383 | 1485 ft | 24 kts | 84° |
| 2026-05-04 18:12 | 48.36379 | 11.81629 | 1475 ft | 24 kts | 83° |
| 2026-05-04 18:12 | 48.36398 | 11.81875 | 1485 ft | 24 kts | 85° |
| 2026-05-04 18:12 | 48.36455 | 11.81999 | 1482 ft | 15 kts | 3° |
| 2026-05-04 18:12 | 48.36557 | 11.81984 | 1485 ft | 9 kts | 354° |
| 2026-05-04 18:13 | 48.36564 | 11.81983 | 1485 ft | 0 kts | 354° |
| 2026-05-04 18:13 | 48.36661 | 11.81938 | 1476 ft | 11 kts | 307° |
| 2026-05-04 18:14 | 48.36667 | 11.81839 | 1475 ft | 0 kts | 263° |
| 2026-05-04 18:14 | 48.36667 | 11.81838 | 1475 ft | 1 kts | 263° |
| 2026-05-04 18:15 | 48.36564 | 11.80501 | 1477 ft | 128 kts | 263° |
| 2026-05-04 18:15 | 48.36289 | 11.77046 | 2045 ft | 177 kts | 263° |
| 2026-05-04 18:15 | 48.36141 | 11.75172 | 2646 ft | 185 kts | 263° |
| 2026-05-04 18:16 | 48.35986 | 11.73194 | 3049 ft | 197 kts | 263° |
| 2026-05-04 18:16 | 48.35824 | 11.71064 | 3348 ft | 213 kts | 263° |
| 2026-05-04 18:16 | 48.35665 | 11.68771 | 3637 ft | 227 kts | 268° |
| 2026-05-04 18:17 | 48.37019 | 11.64170 | 3878 ft | 273 kts | 303° |
| 2026-05-04 18:17 | 48.38088 | 11.61705 | 4446 ft | 280 kts | 302° |
| 2026-05-04 18:17 | 48.40172 | 11.56774 | 5926 ft | 280 kts | 300° |
| 2026-05-04 18:18 | 48.41200 | 11.54273 | 6598 ft | 284 kts | 300° |
| 2026-05-04 18:18 | 48.42242 | 11.51726 | 6888 ft | 285 kts | 299° |
| 2026-05-04 18:18 | 48.43271 | 11.49204 | 6883 ft | 280 kts | 299° |
| 2026-05-04 18:18 | 48.44320 | 11.46710 | 6939 ft | 283 kts | 304° |
| 2026-05-04 18:19 | 48.47379 | 11.43042 | 6947 ft | 286 kts | 336° |
| 2026-05-04 18:19 | 48.49292 | 11.42210 | 6948 ft | 287 kts | 349° |
| 2026-05-04 18:19 | 48.51260 | 11.41674 | 6955 ft | 287 kts | 349° |
| 2026-05-04 18:20 | 48.53228 | 11.41137 | 6931 ft | 287 kts | 349° |
| 2026-05-04 18:20 | 48.55196 | 11.40596 | 6929 ft | 288 kts | 349° |
| 2026-05-04 18:20 | 48.57165 | 11.40054 | 6929 ft | 287 kts | 349° |
| 2026-05-04 18:20 | 48.59135 | 11.39513 | 6927 ft | 288 kts | 349° |
| 2026-05-04 18:21 | 48.61104 | 11.38971 | 6923 ft | 288 kts | 349° |
| 2026-05-04 18:21 | 48.63074 | 11.38426 | 6924 ft | 288 kts | 349° |
| 2026-05-04 18:21 | 48.65019 | 11.37888 | 6922 ft | 288 kts | 349° |
| 2026-05-04 18:21 | 48.67026 | 11.37335 | 7281 ft | 291 kts | 348° |
| 2026-05-04 18:22 | 48.68977 | 11.36657 | 7957 ft | 292 kts | 340° |
| 2026-05-04 18:22 | 48.70868 | 11.35525 | 8617 ft | 294 kts | 330° |
| 2026-05-04 18:22 | 48.72631 | 11.33957 | 9264 ft | 294 kts | 322° |
| 2026-05-04 18:22 | 48.74338 | 11.32214 | 9910 ft | 297 kts | 322° |
| 2026-05-04 18:23 | 48.76089 | 11.30434 | 10224 ft | 313 kts | 324° |
| 2026-05-04 18:23 | 48.78128 | 11.28981 | 10351 ft | 336 kts | 338° |
| 2026-05-04 18:23 | 48.80390 | 11.27764 | 10550 ft | 352 kts | 338° |
| 2026-05-04 18:23 | 48.82719 | 11.26536 | 11024 ft | 358 kts | 339° |
| 2026-05-04 18:24 | 48.85086 | 11.25296 | 11577 ft | 362 kts | 339° |
| 2026-05-04 18:24 | 48.87468 | 11.24019 | 12141 ft | 365 kts | 338° |
| 2026-05-04 18:24 | 48.89858 | 11.22680 | 12684 ft | 368 kts | 337° |
| 2026-05-04 18:24 | 48.92265 | 11.21295 | 13237 ft | 371 kts | 336° |
| 2026-05-04 18:25 | 48.94693 | 11.19877 | 13764 ft | 375 kts | 337° |
| 2026-05-04 18:25 | 48.97138 | 11.18444 | 14254 ft | 377 kts | 336° |
| 2026-05-04 18:25 | 48.99592 | 11.17008 | 14768 ft | 379 kts | 336° |
| 2026-05-04 18:25 | 49.02059 | 11.15572 | 15297 ft | 380 kts | 337° |
| 2026-05-04 18:26 | 49.04542 | 11.14140 | 15840 ft | 382 kts | 337° |
| 2026-05-04 18:26 | 49.06189 | 11.13196 | 16191 ft | 383 kts | 337° |
| 2026-05-04 18:26 | 49.08687 | 11.11765 | 16702 ft | 384 kts | 337° |
| 2026-05-04 18:26 | 49.11193 | 11.10323 | 17195 ft | 386 kts | 337° |
| 2026-05-04 18:27 | 49.13708 | 11.08868 | 17697 ft | 388 kts | 336° |
| 2026-05-04 18:27 | 49.16247 | 11.07392 | 18183 ft | 390 kts | 336° |
| 2026-05-04 18:27 | 49.18789 | 11.05913 | 18595 ft | 392 kts | 336° |
| 2026-05-04 18:27 | 49.22178 | 11.03943 | 19142 ft | 395 kts | 336° |
| 2026-05-04 18:28 | 49.23918 | 11.02926 | 19375 ft | 397 kts | 336° |
| 2026-05-04 18:28 | 49.26510 | 11.01406 | 19755 ft | 400 kts | 336° |
| 2026-05-04 18:28 | 49.29115 | 10.99872 | 20140 ft | 402 kts | 336° |
| 2026-05-04 18:28 | 49.31729 | 10.98322 | 20534 ft | 405 kts | 336° |
| 2026-05-04 18:29 | 49.34367 | 10.96754 | 20909 ft | 407 kts | 336° |
| 2026-05-04 18:29 | 49.36938 | 10.94933 | 21273 ft | 406 kts | 327° |
| 2026-05-04 18:29 | 49.39256 | 10.92475 | 21639 ft | 405 kts | 316° |
| 2026-05-04 18:29 | 49.41249 | 10.89443 | 21999 ft | 403 kts | 307° |
| 2026-05-04 18:30 | 49.44767 | 10.82768 | 22735 ft | 407 kts | 306° |
| 2026-05-04 18:30 | 49.46554 | 10.79383 | 23120 ft | 409 kts | 306° |
| 2026-05-04 18:30 | 49.48355 | 10.75974 | 23470 ft | 412 kts | 306° |
| 2026-05-04 18:31 | 49.50166 | 10.72543 | 23760 ft | 415 kts | 306° |
| 2026-05-04 18:31 | 49.51985 | 10.69090 | 24059 ft | 417 kts | 306° |
| 2026-05-04 18:31 | 49.53813 | 10.65614 | 24377 ft | 418 kts | 306° |
| 2026-05-04 18:31 | 49.55642 | 10.62125 | 24699 ft | 420 kts | 306° |
| 2026-05-04 18:32 | 49.57476 | 10.58619 | 25012 ft | 421 kts | 306° |
| 2026-05-04 18:32 | 49.59314 | 10.55102 | 25328 ft | 422 kts | 305° |
| 2026-05-04 18:32 | 49.61185 | 10.51521 | 25642 ft | 424 kts | 305° |
| 2026-05-04 18:32 | 49.63011 | 10.48020 | 25940 ft | 425 kts | 305° |
| 2026-05-04 18:33 | 49.64865 | 10.44459 | 26241 ft | 427 kts | 305° |
| 2026-05-04 18:33 | 49.66681 | 10.40826 | 26541 ft | 427 kts | 303° |
| 2026-05-04 18:33 | 49.68409 | 10.37084 | 26848 ft | 428 kts | 301° |
| 2026-05-04 18:33 | 49.70073 | 10.33270 | 27139 ft | 429 kts | 300° |
| 2026-05-04 18:34 | 49.71717 | 10.29402 | 27436 ft | 431 kts | 299° |
| 2026-05-04 18:34 | 49.73364 | 10.25522 | 27735 ft | 432 kts | 300° |
| 2026-05-04 18:34 | 49.75032 | 10.21631 | 28046 ft | 434 kts | 300° |
| 2026-05-04 18:34 | 49.76710 | 10.17759 | 28359 ft | 435 kts | 300° |
| 2026-05-04 18:35 | 49.78407 | 10.13883 | 28660 ft | 436 kts | 300° |
| 2026-05-04 18:35 | 49.80119 | 10.09998 | 28945 ft | 437 kts | 300° |
| 2026-05-04 18:35 | 49.81840 | 10.06098 | 29214 ft | 439 kts | 300° |
| 2026-05-04 18:35 | 49.83561 | 10.02188 | 29492 ft | 440 kts | 300° |
| 2026-05-04 18:36 | 49.85282 | 9.98254 | 29739 ft | 442 kts | 300° |
| 2026-05-04 18:36 | 49.87008 | 9.94289 | 29949 ft | 444 kts | 300° |
| 2026-05-04 18:36 | 49.88735 | 9.90303 | 30150 ft | 446 kts | 300° |
| 2026-05-04 18:36 | 49.90466 | 9.86310 | 30341 ft | 447 kts | 300° |
| 2026-05-04 18:37 | 49.92207 | 9.82294 | 30544 ft | 448 kts | 300° |
| 2026-05-04 18:37 | 49.93947 | 9.78283 | 30821 ft | 447 kts | 300° |
| 2026-05-04 18:37 | 49.95678 | 9.74288 | 31080 ft | 446 kts | 300° |
| 2026-05-04 18:37 | 49.97383 | 9.70348 | 31345 ft | 445 kts | 300° |
| 2026-05-04 18:38 | 49.99108 | 9.66356 | 31567 ft | 445 kts | 300° |
| 2026-05-04 18:38 | 50.00824 | 9.62368 | 31824 ft | 444 kts | 300° |
| 2026-05-04 18:38 | 50.02536 | 9.58374 | 31972 ft | 440 kts | 299° |
| 2026-05-04 18:39 | 50.05923 | 9.50614 | 31972 ft | 431 kts | 303° |
| 2026-05-04 18:39 | 50.10297 | 9.44113 | 31974 ft | 439 kts | 316° |
| 2026-05-04 18:40 | 50.15050 | 9.38119 | 31976 ft | 439 kts | 316° |
| 2026-05-04 18:40 | 50.19786 | 9.32108 | 31981 ft | 439 kts | 316° |
| 2026-05-04 18:41 | 50.24523 | 9.26093 | 31979 ft | 439 kts | 316° |
| 2026-05-04 18:41 | 50.29257 | 9.20058 | 32006 ft | 439 kts | 315° |
| 2026-05-04 18:42 | 50.33992 | 9.14003 | 31994 ft | 440 kts | 316° |
| 2026-05-04 18:42 | 50.38731 | 9.07954 | 31984 ft | 440 kts | 315° |
| 2026-05-04 18:43 | 50.43442 | 9.01908 | 31990 ft | 440 kts | 315° |
| 2026-05-04 18:43 | 50.45805 | 8.98875 | 31856 ft | 438 kts | 316° |
| 2026-05-04 18:43 | 50.48156 | 8.95868 | 31545 ft | 430 kts | 316° |
| 2026-05-04 18:43 | 50.50436 | 8.92952 | 31413 ft | 417 kts | 315° |
| 2026-05-04 18:44 | 50.52649 | 8.90107 | 31226 ft | 406 kts | 315° |
| 2026-05-04 18:44 | 50.54127 | 8.88231 | 31055 ft | 403 kts | 316° |
| 2026-05-04 18:44 | 50.57119 | 8.84824 | 30723 ft | 404 kts | 328° |
| 2026-05-04 18:44 | 50.59801 | 8.83401 | 30478 ft | 413 kts | 347° |
| 2026-05-04 18:45 | 50.62694 | 8.83321 | 30212 ft | 420 kts | 1° |
| 2026-05-04 18:45 | 50.65605 | 8.83803 | 29895 ft | 420 kts | 2° |
| 2026-05-04 18:45 | 50.68504 | 8.84336 | 29485 ft | 418 kts | 3° |
| 2026-05-04 18:45 | 50.71379 | 8.84869 | 29063 ft | 415 kts | 3° |
| 2026-05-04 18:46 | 50.74275 | 8.85403 | 28644 ft | 412 kts | 3° |
| 2026-05-04 18:46 | 50.77070 | 8.85915 | 28317 ft | 408 kts | 3° |
| 2026-05-04 18:46 | 50.79928 | 8.86378 | 28045 ft | 405 kts | 357° |
| 2026-05-04 18:46 | 50.82660 | 8.85832 | 27780 ft | 391 kts | 336° |
| 2026-05-04 18:47 | 50.85011 | 8.83982 | 27524 ft | 377 kts | 316° |
| 2026-05-04 18:47 | 50.86782 | 8.81036 | 27258 ft | 364 kts | 296° |
| 2026-05-04 18:47 | 50.87820 | 8.77444 | 27004 ft | 357 kts | 286° |
| 2026-05-04 18:47 | 50.88774 | 8.73803 | 26739 ft | 359 kts | 290° |
| 2026-05-04 18:48 | 50.89840 | 8.70225 | 26436 ft | 359 kts | 291° |
| 2026-05-04 18:48 | 50.90950 | 8.66691 | 26044 ft | 357 kts | 292° |
| 2026-05-04 18:48 | 50.92060 | 8.63176 | 25651 ft | 355 kts | 292° |
| 2026-05-04 18:48 | 50.93149 | 8.59671 | 25259 ft | 353 kts | 291° |
| 2026-05-04 18:49 | 50.94207 | 8.56175 | 24993 ft | 350 kts | 291° |
| 2026-05-04 18:49 | 50.95243 | 8.52680 | 24983 ft | 351 kts | 291° |
| 2026-05-04 18:49 | 50.96268 | 8.49167 | 24988 ft | 352 kts | 290° |
| 2026-05-04 18:49 | 50.97292 | 8.45627 | 24979 ft | 353 kts | 290° |
| 2026-05-04 18:50 | 50.98317 | 8.42086 | 24784 ft | 353 kts | 291° |
| 2026-05-04 18:50 | 50.99344 | 8.38562 | 24551 ft | 352 kts | 291° |
| 2026-05-04 18:50 | 51.00428 | 8.35083 | 24312 ft | 352 kts | 297° |
| 2026-05-04 18:50 | 51.01862 | 8.31910 | 24086 ft | 356 kts | 308° |
| 2026-05-04 18:51 | 51.03655 | 8.29183 | 23854 ft | 359 kts | 318° |
| 2026-05-04 18:51 | 51.05746 | 8.26998 | 23633 ft | 361 kts | 327° |
| 2026-05-04 18:51 | 51.07934 | 8.25063 | 23264 ft | 360 kts | 327° |
| 2026-05-04 18:51 | 51.10120 | 8.23125 | 22727 ft | 359 kts | 327° |
| 2026-05-04 18:52 | 51.12302 | 8.21188 | 22225 ft | 358 kts | 327° |
| 2026-05-04 18:52 | 51.14465 | 8.19261 | 21688 ft | 354 kts | 327° |
| 2026-05-04 18:52 | 51.16604 | 8.17353 | 21152 ft | 352 kts | 327° |
| 2026-05-04 18:52 | 51.18726 | 8.15454 | 20615 ft | 347 kts | 327° |
| 2026-05-04 18:53 | 51.20803 | 8.13593 | 20099 ft | 347 kts | 327° |
| 2026-05-04 18:53 | 51.22905 | 8.11706 | 19581 ft | 345 kts | 327° |
| 2026-05-04 18:53 | 51.24988 | 8.09838 | 19093 ft | 344 kts | 327° |
| 2026-05-04 18:53 | 51.27079 | 8.07960 | 18597 ft | 345 kts | 327° |
| 2026-05-04 18:54 | 51.29168 | 8.06081 | 18076 ft | 344 kts | 327° |
| 2026-05-04 18:54 | 51.31247 | 8.04229 | 17514 ft | 340 kts | 330° |
| 2026-05-04 18:54 | 51.33491 | 8.03139 | 16958 ft | 338 kts | 354° |
| 2026-05-04 18:54 | 51.35817 | 8.03433 | 16418 ft | 333 kts | 11° |
| 2026-05-04 18:55 | 51.38058 | 8.04254 | 15921 ft | 327 kts | 13° |
| 2026-05-04 18:55 | 51.42413 | 8.05959 | 14977 ft | 319 kts | 14° |
| 2026-05-04 18:55 | 51.44549 | 8.06790 | 14593 ft | 311 kts | 14° |
| 2026-05-04 18:56 | 51.46627 | 8.07593 | 14237 ft | 305 kts | 14° |
| 2026-05-04 18:56 | 51.48678 | 8.08381 | 13990 ft | 300 kts | 14° |
| 2026-05-04 18:56 | 51.50684 | 8.09148 | 13980 ft | 296 kts | 14° |
| 2026-05-04 18:56 | 51.52683 | 8.09912 | 13984 ft | 295 kts | 14° |
| 2026-05-04 18:57 | 51.54676 | 8.10678 | 13971 ft | 293 kts | 11° |
| 2026-05-04 18:57 | 51.56686 | 8.10750 | 13970 ft | 289 kts | 345° |
| 2026-05-04 18:57 | 51.58513 | 8.09492 | 13978 ft | 286 kts | 326° |
| 2026-05-04 18:57 | 51.60191 | 8.07768 | 13965 ft | 286 kts | 324° |
| 2026-05-04 18:58 | 51.61850 | 8.05983 | 13966 ft | 286 kts | 324° |
| 2026-05-04 18:58 | 51.63505 | 8.04190 | 13963 ft | 286 kts | 323° |
| 2026-05-04 18:58 | 51.65156 | 8.02397 | 13975 ft | 286 kts | 323° |
| 2026-05-04 18:58 | 51.66694 | 8.00400 | 13963 ft | 283 kts | 307° |
| 2026-05-04 18:59 | 51.67689 | 7.97718 | 13980 ft | 278 kts | 290° |
| 2026-05-04 18:59 | 51.68446 | 7.94840 | 13977 ft | 277 kts | 281° |
| 2026-05-04 18:59 | 51.68525 | 7.91813 | 13978 ft | 270 kts | 255° |
| 2026-05-04 18:59 | 51.67821 | 7.89051 | 13979 ft | 266 kts | 233° |
| 2026-05-04 19:00 | 51.66550 | 7.86915 | 13981 ft | 264 kts | 218° |
| 2026-05-04 19:00 | 51.65139 | 7.85013 | 13976 ft | 265 kts | 219° |
| 2026-05-04 19:00 | 51.63734 | 7.83098 | 13978 ft | 265 kts | 219° |
| 2026-05-04 19:00 | 51.62327 | 7.81182 | 13977 ft | 265 kts | 219° |
| 2026-05-04 19:01 | 51.60917 | 7.79264 | 13980 ft | 265 kts | 219° |
| 2026-05-04 19:01 | 51.59527 | 7.77376 | 13978 ft | 265 kts | 219° |
| 2026-05-04 19:01 | 51.58100 | 7.75437 | 13973 ft | 265 kts | 219° |
| 2026-05-04 19:01 | 51.56708 | 7.73546 | 13959 ft | 265 kts | 219° |
| 2026-05-04 19:02 | 51.55298 | 7.71631 | 13986 ft | 266 kts | 218° |
| 2026-05-04 19:02 | 51.53888 | 7.69718 | 13973 ft | 266 kts | 218° |
| 2026-05-04 19:02 | 51.52455 | 7.67779 | 13928 ft | 267 kts | 218° |
| 2026-05-04 19:02 | 51.51058 | 7.65894 | 13678 ft | 264 kts | 218° |
| 2026-05-04 19:03 | 51.49654 | 7.64002 | 13410 ft | 263 kts | 218° |
| 2026-05-04 19:03 | 51.48254 | 7.62117 | 13139 ft | 262 kts | 218° |
| 2026-05-04 19:03 | 51.46856 | 7.60235 | 12878 ft | 261 kts | 218° |
| 2026-05-04 19:03 | 51.45470 | 7.58368 | 12617 ft | 260 kts | 219° |
| 2026-05-04 19:04 | 51.44088 | 7.56502 | 12349 ft | 259 kts | 219° |
| 2026-05-04 19:04 | 51.42717 | 7.54639 | 12103 ft | 258 kts | 221° |
| 2026-05-04 19:04 | 51.41514 | 7.52512 | 11849 ft | 258 kts | 232° |
| 2026-05-04 19:04 | 51.40514 | 7.50122 | 11597 ft | 258 kts | 235° |
| 2026-05-04 19:05 | 51.39525 | 7.47728 | 11346 ft | 257 kts | 234° |
| 2026-05-04 19:05 | 51.38536 | 7.45346 | 11101 ft | 256 kts | 234° |
| 2026-05-04 19:05 | 51.37552 | 7.42978 | 10859 ft | 255 kts | 234° |
| 2026-05-04 19:05 | 51.36572 | 7.40624 | 10614 ft | 254 kts | 234° |
| 2026-05-04 19:06 | 51.35593 | 7.38278 | 10371 ft | 253 kts | 234° |
| 2026-05-04 19:06 | 51.34616 | 7.35940 | 10135 ft | 252 kts | 235° |
| 2026-05-04 19:06 | 51.33648 | 7.33620 | 9905 ft | 248 kts | 234° |
| 2026-05-04 19:06 | 51.32704 | 7.31355 | 9779 ft | 243 kts | 234° |
| 2026-05-04 19:07 | 51.31769 | 7.29116 | 9622 ft | 243 kts | 234° |
| 2026-05-04 19:07 | 51.30834 | 7.26874 | 9348 ft | 241 kts | 234° |
| 2026-05-04 19:07 | 51.29905 | 7.24657 | 9087 ft | 239 kts | 234° |
| 2026-05-04 19:07 | 51.28977 | 7.22450 | 8827 ft | 238 kts | 234° |
| 2026-05-04 19:08 | 51.28054 | 7.20260 | 8566 ft | 237 kts | 234° |
| 2026-05-04 19:08 | 51.27136 | 7.18077 | 8309 ft | 236 kts | 234° |
| 2026-05-04 19:08 | 51.26327 | 7.15802 | 8068 ft | 238 kts | 250° |
| 2026-05-04 19:08 | 51.26226 | 7.13148 | 7810 ft | 247 kts | 280° |
| 2026-05-04 19:09 | 51.27005 | 7.10702 | 7548 ft | 254 kts | 311° |
| 2026-05-04 19:09 | 51.28394 | 7.08923 | 7313 ft | 257 kts | 321° |
| 2026-05-04 19:09 | 51.29959 | 7.07551 | 7097 ft | 259 kts | 344° |
| 2026-05-04 19:09 | 51.31751 | 7.07474 | 6983 ft | 260 kts | 14° |
| 2026-05-04 19:10 | 51.32854 | 7.08200 | 6982 ft | 261 kts | 33° |
| 2026-05-04 19:10 | 51.34214 | 7.10091 | 6983 ft | 259 kts | 50° |
| 2026-05-04 19:10 | 51.35371 | 7.12306 | 6919 ft | 260 kts | 53° |
| 2026-05-04 19:10 | 51.36495 | 7.14554 | 6670 ft | 256 kts | 53° |
| 2026-05-04 19:11 | 51.37589 | 7.16783 | 6430 ft | 254 kts | 53° |
| 2026-05-04 19:11 | 51.38676 | 7.19000 | 6171 ft | 253 kts | 53° |
| 2026-05-04 19:11 | 51.39763 | 7.21234 | 5906 ft | 256 kts | 53° |
| 2026-05-04 19:11 | 51.40928 | 7.23386 | 5638 ft | 256 kts | 38° |
| 2026-05-04 19:12 | 51.42521 | 7.24550 | 5343 ft | 252 kts | 7° |
| 2026-05-04 19:12 | 51.45532 | 7.22721 | 4744 ft | 234 kts | 303° |
| 2026-05-04 19:12 | 51.46102 | 7.20356 | 4435 ft | 228 kts | 272° |
| 2026-05-04 19:13 | 51.46086 | 7.17804 | 4143 ft | 229 kts | 264° |
| 2026-05-04 19:13 | 51.45970 | 7.15245 | 3883 ft | 230 kts | 264° |
| 2026-05-04 19:13 | 51.45821 | 7.12734 | 3626 ft | 222 kts | 257° |
| 2026-05-04 19:13 | 51.45250 | 7.10555 | 3397 ft | 211 kts | 233° |
| 2026-05-04 19:14 | 51.44392 | 7.08730 | 3148 ft | 199 kts | 232° |
| 2026-05-04 19:14 | 51.43588 | 7.07018 | 3018 ft | 184 kts | 232° |
| 2026-05-04 19:14 | 51.42838 | 7.05423 | 3006 ft | 177 kts | 231° |
| 2026-05-04 19:14 | 51.42102 | 7.03862 | 3005 ft | 175 kts | 231° |
| 2026-05-04 19:15 | 51.41372 | 7.02313 | 3007 ft | 174 kts | 231° |
| 2026-05-04 19:15 | 51.40644 | 7.00770 | 3013 ft | 174 kts | 231° |
| 2026-05-04 19:15 | 51.39916 | 6.99227 | 3011 ft | 173 kts | 231° |
| 2026-05-04 19:15 | 51.39188 | 6.97685 | 3014 ft | 174 kts | 231° |
| 2026-05-04 19:16 | 51.38458 | 6.96140 | 2933 ft | 175 kts | 231° |
| 2026-05-04 19:16 | 51.37729 | 6.94597 | 2749 ft | 174 kts | 231° |
| 2026-05-04 19:16 | 51.37001 | 6.93057 | 2533 ft | 172 kts | 231° |
| 2026-05-04 19:16 | 51.36283 | 6.91539 | 2309 ft | 170 kts | 231° |
| 2026-05-04 19:17 | 51.35570 | 6.90034 | 2098 ft | 169 kts | 231° |
| 2026-05-04 19:17 | 51.34863 | 6.88542 | 1849 ft | 165 kts | 232° |
| 2026-05-04 19:17 | 51.34193 | 6.87126 | 1640 ft | 156 kts | 229° |
| 2026-05-04 19:17 | 51.33558 | 6.85788 | 1424 ft | 148 kts | 230° |
| 2026-05-04 19:18 | 51.32943 | 6.84492 | 1227 ft | 145 kts | 229° |
| 2026-05-04 19:18 | 51.32336 | 6.83205 | 1029 ft | 146 kts | 227° |
| 2026-05-04 19:18 | 51.31720 | 6.81923 | 813 ft | 145 kts | 230° |
| 2026-05-04 19:18 | 51.31118 | 6.80644 | 614 ft | 144 kts | 231° |
| 2026-05-04 19:19 | 51.30517 | 6.79358 | 435 ft | 142 kts | 230° |
| 2026-05-04 19:19 | 51.29929 | 6.78116 | 245 ft | 139 kts | 229° |
| 2026-05-04 19:19 | 51.29356 | 6.76956 | 114 ft | 122 kts | 232° |
| 2026-05-04 19:19 | 51.28999 | 6.76194 | 118 ft | 53 kts | 233° |
| 2026-05-04 19:20 | 51.28827 | 6.75837 | 113 ft | 27 kts | 227° |
| 2026-05-04 19:20 | 51.28691 | 6.75701 | 118 ft | 15 kts | 199° |
| 2026-05-04 19:20 | 51.28615 | 6.75682 | 117 ft | 0 kts | 178° |
| 2026-05-04 19:22 | 51.28613 | 6.75682 | 117 ft | 1 kts | 178° |
| 2026-05-04 19:23 | 51.28585 | 6.75685 | 118 ft | 6 kts | 173° |
| 2026-05-04 19:23 | 51.28541 | 6.75703 | 116 ft | 7 kts | 160° |
| 2026-05-04 19:23 | 51.28491 | 6.75745 | 118 ft | 9 kts | 146° |
| 2026-05-04 19:23 | 51.28482 | 6.75755 | 115 ft | 0 kts | 146° |
| 2026-05-04 19:26 | 51.28482 | 6.75756 | 118 ft | 1 kts | 146° |
| 2026-05-04 19:26 | 51.28455 | 6.75785 | 115 ft | 6 kts | 143° |
| 2026-05-04 19:27 | 51.28416 | 6.75833 | 116 ft | 8 kts | 143° |
| 2026-05-04 19:27 | 51.28397 | 6.75856 | 115 ft | 0 kts | 143° |
| 2026-05-04 19:32 | 51.28390 | 6.75864 | 115 ft | 5 kts | 143° |
| 2026-05-04 19:32 | 51.28335 | 6.75930 | 114 ft | 12 kts | 143° |
| 2026-05-04 19:32 | 51.28274 | 6.76004 | 115 ft | 10 kts | 144° |
| 2026-05-04 19:32 | 51.28224 | 6.76055 | 116 ft | 0 kts | 148° |
| 2026-05-04 19:34 | 51.28223 | 6.76056 | 116 ft | 2 kts | 148° |
| 2026-05-04 19:34 | 51.28198 | 6.76082 | 116 ft | 4 kts | 142° |
| 2026-05-04 19:35 | 51.28187 | 6.76118 | 115 ft | 3 kts | 98° |
| 2026-05-04 19:35 | 51.28200 | 6.76184 | 116 ft | 10 kts | 84° |
| 2026-05-04 19:35 | 51.28169 | 6.76271 | 116 ft | 8 kts | 136° |
| 2026-05-04 19:35 | 51.28136 | 6.76338 | 116 ft | 9 kts | 120° |
| 2026-05-04 19:36 | 51.28102 | 6.76407 | 115 ft | 7 kts | 141° |
| 2026-05-04 19:36 | 51.28077 | 6.76447 | 114 ft | 4 kts | 112° |
| 2026-05-04 19:36 | 51.28071 | 6.76498 | 114 ft | 4 kts | 97° |
| 2026-05-04 19:36 | 51.28069 | 6.76527 | 117 ft | 1 kts | 97° |
| 2026-05-04 19:37 | 51.28068 | 6.76531 | 117 ft | 0 kts | 97° |
| 2026-05-04 19:37 | 51.28068 | 6.76534 | 117 ft | 0 kts | 97° |
| 2026-05-04 19:37 | 51.28068 | 6.76535 | 117 ft | 0 kts | 97° |
| 2026-05-04 19:44 | 51.28068 | 6.76536 | 118 ft | 0 kts | 97° |